createdAt,value
2018-09-11T00:00:17.027Z,20.70
2018-09-11T00:02:45.509Z,20.60
2018-09-11T00:05:14.049Z,20.70
2018-09-11T00:07:42.430Z,20.60
2018-09-11T00:10:10.870Z,20.60
2018-09-11T00:12:39.316Z,20.50
2018-09-11T00:15:07.767Z,20.50
2018-09-11T00:17:36.222Z,20.50
2018-09-11T00:20:04.750Z,20.40
2018-09-11T00:22:33.210Z,20.30
2018-09-11T00:25:01.630Z,20.30
2018-09-11T00:27:30.050Z,20.30
2018-09-11T00:29:58.851Z,20.20
2018-09-11T00:32:27.271Z,20.20
2018-09-11T00:34:55.712Z,20.20
2018-09-11T00:37:24.159Z,20.20
2018-09-11T00:39:52.660Z,20.30
2018-09-11T00:42:21.038Z,20.20
2018-09-11T00:44:49.519Z,20.20
2018-09-11T00:47:17.990Z,20.20
2018-09-11T00:49:46.606Z,20.10
2018-09-11T00:52:15.070Z,20.10
2018-09-11T00:54:43.514Z,20.00
2018-09-11T00:57:11.885Z,20.00
2018-09-11T00:59:40.298Z,19.90
2018-09-11T01:02:08.638Z,19.90
2018-09-11T01:04:37.106Z,19.80
2018-09-11T01:07:05.711Z,19.80
2018-09-11T01:09:34.190Z,19.80
2018-09-11T01:12:02.665Z,19.80
2018-09-11T01:14:31.006Z,19.80
2018-09-11T01:16:59.341Z,19.80
2018-09-11T01:19:27.769Z,19.80
2018-09-11T01:21:56.154Z,19.80
2018-09-11T01:24:24.529Z,19.80
2018-09-11T01:26:52.987Z,19.80
2018-09-11T01:29:21.324Z,19.80
2018-09-11T01:31:49.678Z,19.70
2018-09-11T01:34:18.091Z,19.70
2018-09-11T01:36:46.609Z,19.70
2018-09-11T01:39:15.034Z,19.60
2018-09-11T01:41:43.454Z,19.60
2018-09-11T01:44:12.060Z,19.60
2018-09-11T01:46:40.472Z,19.60
2018-09-11T01:49:09.056Z,19.50
2018-09-11T01:51:37.533Z,19.50
2018-09-11T01:54:06.121Z,19.50
2018-09-11T01:56:34.582Z,19.40
2018-09-11T01:59:02.977Z,19.40
2018-09-11T02:01:31.393Z,19.30
2018-09-11T02:03:59.814Z,19.30
2018-09-11T02:06:28.277Z,19.30
2018-09-11T02:08:56.798Z,19.30
2018-09-11T02:11:25.306Z,19.20
2018-09-11T02:13:53.745Z,19.20
2018-09-11T02:16:22.208Z,19.20
2018-09-11T02:18:50.641Z,19.20
2018-09-11T02:21:19.118Z,19.20
2018-09-11T02:23:47.509Z,19.10
2018-09-11T02:26:15.857Z,19.10
2018-09-11T02:28:44.188Z,19.10
2018-09-11T02:31:12.588Z,19.10
2018-09-11T02:33:41.079Z,19.10
2018-09-11T02:36:09.656Z,19.10
2018-09-11T02:38:38.009Z,19.00
2018-09-11T02:41:06.490Z,19.00
2018-09-11T02:43:34.846Z,19.00
2018-09-11T02:46:03.257Z,19.00
2018-09-11T02:48:31.647Z,19.00
2018-09-11T02:51:00.025Z,18.90
2018-09-11T02:53:28.516Z,18.90
2018-09-11T02:55:57.006Z,18.90
2018-09-11T02:58:25.454Z,18.90
2018-09-11T03:00:53.826Z,18.80
2018-09-11T03:03:22.312Z,18.80
2018-09-11T03:05:50.871Z,18.80
2018-09-11T03:08:20.143Z,18.80
2018-09-11T03:10:48.609Z,18.70
2018-09-11T03:13:17.006Z,18.70
2018-09-11T03:15:45.405Z,18.70
2018-09-11T03:18:13.954Z,18.60
2018-09-11T03:20:42.325Z,18.60
2018-09-11T03:23:10.922Z,18.60
2018-09-11T03:25:39.562Z,18.60
2018-09-11T03:28:08.177Z,18.60
2018-09-11T03:30:36.674Z,18.60
2018-09-11T03:33:05.149Z,18.60
2018-09-11T03:35:33.688Z,18.50
2018-09-11T03:38:02.174Z,18.50
2018-09-11T03:40:30.582Z,18.50
2018-09-11T03:42:59.141Z,18.50
2018-09-11T03:45:27.544Z,18.60
2018-09-11T03:47:55.907Z,18.60
2018-09-11T03:50:24.262Z,18.60
2018-09-11T03:52:52.738Z,18.50
2018-09-11T03:55:21.121Z,18.50
2018-09-11T03:57:49.713Z,18.40
2018-09-11T04:00:18.203Z,18.40
2018-09-11T04:02:46.660Z,18.40
2018-09-11T04:05:15.172Z,18.40
2018-09-11T04:07:43.614Z,18.40
2018-09-11T04:10:12.014Z,18.30
2018-09-11T04:12:40.413Z,18.30
2018-09-11T04:15:08.972Z,18.30
2018-09-11T04:17:40.943Z,18.20
2018-09-11T04:20:09.439Z,18.30
2018-09-11T04:22:38.772Z,18.20
2018-09-11T04:25:07.259Z,18.20
2018-09-11T04:27:35.641Z,18.20
2018-09-11T04:30:04.303Z,18.20
2018-09-11T04:32:32.847Z,18.20
2018-09-11T04:35:01.270Z,18.20
2018-09-11T04:37:29.712Z,18.20
2018-09-11T04:39:58.085Z,18.10
2018-09-11T04:42:26.473Z,18.10
2018-09-11T04:44:54.862Z,18.10
2018-09-11T04:47:23.313Z,18.00
2018-09-11T04:49:51.676Z,18.00
2018-09-11T04:52:20.069Z,18.10
2018-09-11T04:54:48.469Z,18.00
2018-09-11T04:57:16.932Z,18.00
2018-09-11T04:59:45.413Z,18.00
2018-09-11T05:02:13.826Z,18.00
2018-09-11T05:04:42.371Z,17.90
2018-09-11T05:07:10.810Z,18.00
2018-09-11T05:09:39.200Z,18.00
2018-09-11T05:12:07.925Z,18.00
2018-09-11T05:14:36.321Z,17.90
2018-09-11T05:17:04.826Z,17.90
2018-09-11T05:19:33.203Z,17.90
2018-09-11T05:22:01.523Z,17.90
2018-09-11T05:24:29.902Z,17.90
2018-09-11T05:26:58.443Z,17.90
2018-09-11T05:29:26.809Z,17.90
2018-09-11T05:31:55.149Z,18.00
2018-09-11T05:34:23.629Z,18.00
2018-09-11T05:36:52.676Z,18.00
2018-09-11T05:39:21.088Z,18.00
2018-09-11T05:41:49.645Z,18.10
2018-09-11T05:44:18.013Z,18.10
2018-09-11T05:46:46.506Z,18.10
2018-09-11T05:49:14.918Z,18.10
2018-09-11T05:51:43.289Z,18.10
2018-09-11T05:54:11.812Z,18.20
2018-09-11T05:56:40.374Z,18.20
2018-09-11T05:59:08.728Z,18.20
2018-09-11T06:01:37.330Z,18.20
2018-09-11T06:04:06.202Z,18.20
2018-09-11T06:06:34.706Z,18.20
2018-09-11T06:09:03.703Z,18.30
2018-09-11T06:11:32.151Z,18.30
2018-09-11T06:14:00.483Z,18.30
2018-09-11T06:16:29.029Z,18.40
2018-09-11T06:18:57.390Z,18.40
2018-09-11T06:21:25.782Z,18.40
2018-09-11T06:23:54.133Z,18.50
2018-09-11T06:26:22.660Z,18.50
2018-09-11T06:28:51.626Z,18.50
2018-09-11T06:31:20.008Z,18.50
2018-09-11T06:33:48.541Z,18.60
2018-09-11T06:36:16.952Z,18.60
2018-09-11T06:38:45.488Z,18.70
2018-09-11T06:41:13.967Z,18.70
2018-09-11T06:43:42.278Z,18.70
2018-09-11T06:46:10.736Z,18.80
2018-09-11T06:48:39.377Z,18.90
2018-09-11T06:51:07.721Z,18.90
2018-09-11T06:53:36.202Z,18.90
2018-09-11T06:56:04.574Z,19.00
2018-09-11T06:58:32.933Z,19.00
2018-09-11T07:01:01.357Z,19.00
2018-09-11T07:03:29.748Z,19.10
2018-09-11T07:05:58.265Z,19.10
2018-09-11T07:08:26.643Z,19.20
2018-09-11T07:10:55.121Z,19.30
2018-09-11T07:13:23.606Z,19.20
2018-09-11T07:15:52.276Z,19.30
2018-09-11T07:18:20.670Z,19.40
2018-09-11T07:20:49.125Z,19.40
2018-09-11T07:23:17.559Z,19.50
2018-09-11T07:25:45.944Z,19.50
2018-09-11T07:28:14.413Z,19.60
2018-09-11T07:30:42.902Z,19.60
2018-09-11T07:33:11.290Z,19.70
2018-09-11T07:35:39.702Z,19.70
2018-09-11T07:38:08.051Z,19.70
2018-09-11T07:40:36.507Z,19.80
2018-09-11T07:43:04.911Z,19.80
2018-09-11T07:45:33.326Z,19.90
2018-09-11T07:48:01.719Z,19.90
2018-09-11T07:50:30.130Z,20.00
2018-09-11T07:52:58.599Z,20.10
2018-09-11T07:55:26.938Z,20.10
2018-09-11T07:57:55.275Z,20.20
2018-09-11T08:00:23.840Z,20.30
2018-09-11T08:02:52.331Z,20.40
2018-09-11T08:05:20.868Z,20.50
2018-09-11T08:07:49.205Z,20.50
2018-09-11T08:10:17.689Z,20.60
2018-09-11T08:12:46.096Z,20.60
2018-09-11T08:15:14.468Z,20.70
2018-09-11T08:17:42.856Z,20.80
2018-09-11T08:20:11.363Z,20.90
2018-09-11T08:22:39.959Z,20.90
2018-09-11T08:25:08.349Z,21.00
2018-09-11T08:27:36.827Z,21.10
2018-09-11T08:30:05.545Z,21.20
2018-09-11T08:32:33.947Z,21.40
2018-09-11T08:35:02.381Z,21.50
2018-09-11T08:37:30.951Z,21.60
2018-09-11T08:39:59.426Z,21.70
2018-09-11T08:42:27.823Z,21.80
2018-09-11T08:44:56.220Z,21.90
2018-09-11T08:47:24.588Z,21.90
2018-09-11T08:49:53.088Z,22.00
2018-09-11T08:52:21.494Z,22.10
2018-09-11T08:54:49.878Z,22.20
2018-09-11T08:57:18.272Z,22.20
2018-09-11T08:59:46.713Z,22.20
2018-09-11T09:02:15.118Z,22.40
2018-09-11T09:04:43.541Z,22.40
2018-09-11T09:07:11.934Z,22.40
2018-09-11T09:09:40.291Z,22.40
2018-09-11T09:12:08.678Z,22.50
2018-09-11T09:14:37.053Z,22.50
2018-09-11T09:17:06.341Z,22.60
2018-09-11T09:19:34.770Z,22.60
2018-09-11T09:22:03.268Z,22.70
2018-09-11T09:24:31.742Z,22.70
2018-09-11T09:27:00.124Z,22.80
2018-09-11T09:29:28.530Z,22.90
2018-09-11T09:31:57.119Z,23.00
2018-09-11T09:34:25.534Z,23.10
2018-09-11T09:36:53.967Z,23.10
2018-09-11T09:39:22.429Z,23.20
2018-09-11T09:41:50.971Z,23.30
2018-09-11T09:44:19.317Z,23.40
2018-09-11T09:46:47.890Z,23.40
2018-09-11T09:49:16.316Z,23.50
2018-09-11T09:51:44.770Z,23.60
2018-09-11T09:54:13.185Z,23.70
2018-09-11T09:56:41.592Z,23.80
2018-09-11T09:59:09.992Z,23.90
2018-09-11T10:01:43.696Z,24.00
2018-09-11T10:04:12.101Z,24.10
2018-09-11T10:06:40.577Z,24.20
2018-09-11T10:09:10.987Z,24.30
2018-09-11T10:11:39.454Z,24.40
2018-09-11T10:14:07.931Z,24.40
2018-09-11T10:16:36.300Z,24.50
2018-09-11T10:19:04.840Z,24.60
2018-09-11T10:21:33.218Z,24.70
2018-09-11T10:24:01.779Z,24.90
2018-09-11T10:26:30.200Z,25.00
2018-09-11T10:28:58.604Z,25.10
2018-09-11T10:31:26.989Z,25.30
2018-09-11T10:33:55.484Z,25.40
2018-09-11T10:36:24.196Z,25.50
2018-09-11T10:38:52.807Z,25.60
2018-09-11T10:41:21.347Z,25.70
2018-09-11T10:43:49.790Z,25.80
2018-09-11T10:46:18.195Z,26.00
2018-09-11T10:48:47.067Z,26.20
2018-09-11T10:51:15.474Z,26.40
2018-09-11T10:53:43.968Z,26.60
2018-09-11T10:56:12.496Z,26.90
2018-09-11T10:58:40.902Z,27.00
2018-09-11T11:01:09.373Z,27.20
2018-09-11T11:03:37.858Z,27.40
2018-09-11T11:06:06.331Z,27.60
2018-09-11T11:08:34.950Z,27.70
2018-09-11T11:11:03.362Z,27.80
2018-09-11T11:13:31.880Z,27.90
2018-09-11T11:16:00.425Z,27.90
2018-09-11T11:18:29.032Z,27.90
2018-09-11T11:21:05.301Z,28.00
2018-09-11T11:23:33.910Z,28.00
2018-09-11T11:26:02.437Z,28.10
2018-09-11T11:28:30.835Z,28.20
2018-09-11T11:30:59.291Z,28.30
2018-09-11T11:33:27.675Z,28.50
2018-09-11T11:35:56.280Z,28.70
2018-09-11T11:38:24.754Z,28.80
2018-09-11T11:40:53.201Z,28.90
2018-09-11T11:43:21.587Z,29.00
2018-09-11T11:45:50.494Z,29.00
2018-09-11T11:48:19.121Z,29.10
2018-09-11T11:50:47.414Z,29.10
2018-09-11T11:53:15.852Z,29.20
2018-09-11T11:55:44.334Z,29.30
2018-09-11T11:58:12.773Z,29.30
2018-09-11T12:00:41.225Z,29.40
2018-09-11T12:03:09.648Z,29.50
2018-09-11T12:05:38.158Z,29.60
2018-09-11T12:08:06.742Z,29.80
2018-09-11T12:10:35.152Z,29.90
2018-09-11T12:13:03.581Z,30.00
2018-09-11T12:15:32.138Z,30.10
2018-09-11T12:18:00.706Z,30.10
2018-09-11T12:20:29.175Z,30.30
2018-09-11T12:22:57.643Z,30.40
2018-09-11T12:25:26.211Z,30.40
2018-09-11T12:27:54.771Z,30.40
2018-09-11T12:30:23.468Z,30.50
2018-09-11T12:32:51.878Z,30.50
2018-09-11T12:35:20.310Z,30.60
2018-09-11T12:37:48.925Z,30.60
2018-09-11T12:40:17.675Z,30.70
2018-09-11T12:42:46.137Z,30.70
2018-09-11T12:45:14.693Z,30.80
2018-09-11T12:47:43.642Z,30.80
2018-09-11T12:50:11.699Z,30.90
2018-09-11T12:52:40.299Z,30.90
2018-09-11T12:55:08.774Z,31.00
2018-09-11T12:57:37.238Z,31.10
2018-09-11T13:00:06.825Z,31.10
2018-09-11T13:02:35.390Z,31.10
2018-09-11T13:05:03.798Z,31.10
2018-09-11T13:07:32.204Z,31.10
2018-09-11T13:10:00.599Z,31.10
2018-09-11T13:12:29.002Z,31.10
2018-09-11T13:14:58.081Z,31.10
2018-09-11T13:17:26.484Z,31.10
2018-09-11T13:19:55.089Z,31.10
2018-09-11T13:22:23.629Z,31.10
2018-09-11T13:24:52.110Z,31.00
2018-09-11T13:27:20.673Z,31.00
2018-09-11T13:29:49.123Z,31.00
2018-09-11T13:32:17.566Z,31.00
2018-09-11T13:34:46.075Z,31.10
2018-09-11T13:37:14.555Z,31.10
2018-09-11T13:39:43.068Z,31.20
2018-09-11T13:42:11.504Z,31.30
2018-09-11T13:44:39.956Z,31.30
2018-09-11T13:47:08.376Z,31.40
2018-09-11T13:49:36.894Z,31.40
2018-09-11T13:52:05.356Z,31.40
2018-09-11T13:54:33.790Z,31.40
2018-09-11T13:57:02.215Z,31.40
2018-09-11T13:59:30.714Z,31.40
2018-09-11T14:01:59.090Z,31.20
2018-09-11T14:04:27.493Z,31.20
2018-09-11T14:06:55.916Z,31.10
2018-09-11T14:09:24.382Z,31.10
2018-09-11T14:11:52.748Z,31.10
2018-09-11T14:14:21.176Z,31.10
2018-09-11T14:16:49.555Z,31.10
2018-09-11T14:19:17.961Z,31.10
2018-09-11T14:21:46.519Z,31.10
2018-09-11T14:24:15.038Z,31.10
2018-09-11T14:26:43.561Z,31.20
2018-09-11T14:29:12.098Z,31.20
2018-09-11T14:31:40.511Z,31.10
2018-09-11T14:34:08.910Z,31.10
2018-09-11T14:36:37.329Z,31.10
2018-09-11T14:39:07.998Z,31.20
2018-09-11T14:41:36.433Z,31.20
2018-09-11T14:44:04.882Z,31.20
2018-09-11T14:46:33.385Z,31.20
2018-09-11T14:49:01.796Z,31.20
2018-09-11T14:51:30.367Z,31.20
2018-09-11T14:53:58.772Z,31.30
2018-09-11T14:56:27.178Z,31.30
2018-09-11T14:58:55.682Z,31.30
2018-09-11T15:01:24.095Z,31.30
2018-09-11T15:03:52.537Z,31.30
2018-09-11T15:06:20.894Z,31.30
2018-09-11T15:08:49.352Z,31.30
2018-09-11T15:11:17.733Z,31.20
2018-09-11T15:13:46.213Z,31.20
2018-09-11T15:16:14.646Z,31.20
2018-09-11T15:18:43.026Z,31.20
2018-09-11T15:21:11.602Z,31.20
2018-09-11T15:23:40.209Z,31.10
2018-09-11T15:26:08.677Z,31.10
2018-09-11T15:28:37.078Z,31.10
2018-09-11T15:31:05.613Z,31.10
2018-09-11T15:33:34.099Z,31.00
2018-09-11T15:36:02.718Z,30.90
2018-09-11T15:38:31.154Z,30.80
2018-09-11T15:40:59.543Z,30.70
2018-09-11T15:43:28.043Z,30.70
2018-09-11T15:45:56.549Z,30.60
2018-09-11T15:48:24.894Z,30.50
2018-09-11T15:50:53.294Z,30.30
2018-09-11T15:53:21.638Z,30.20
2018-09-11T15:55:50.114Z,30.10
2018-09-11T15:58:18.583Z,30.00
2018-09-11T16:00:47.011Z,29.90
2018-09-11T16:03:15.445Z,29.90
2018-09-11T16:05:44.012Z,29.80
2018-09-11T16:08:12.590Z,29.70
2018-09-11T16:10:41.078Z,29.60
2018-09-11T16:13:09.579Z,29.50
2018-09-11T16:15:37.972Z,29.40
2018-09-11T16:18:06.499Z,29.20
2018-09-11T16:20:35.146Z,29.20
2018-09-11T16:23:03.642Z,29.10
2018-09-11T16:25:32.103Z,29.00
2018-09-11T16:28:00.538Z,28.90
2018-09-11T16:30:29.091Z,28.80
2018-09-11T16:32:57.590Z,28.70
2018-09-11T16:35:26.041Z,28.70
2018-09-11T16:37:54.679Z,28.60
2018-09-11T16:40:23.027Z,28.50
2018-09-11T16:42:51.458Z,28.40
2018-09-11T16:45:19.850Z,28.40
2018-09-11T16:47:48.263Z,28.30
2018-09-11T16:50:16.843Z,28.30
2018-09-11T16:52:45.250Z,28.20
2018-09-11T16:55:13.656Z,28.20
2018-09-11T16:57:42.287Z,28.10
2018-09-11T17:00:10.952Z,28.10
2018-09-11T17:02:39.381Z,28.00
2018-09-11T17:05:07.951Z,28.00
2018-09-11T17:07:36.441Z,28.00
2018-09-11T17:10:04.897Z,28.00
2018-09-11T17:12:33.337Z,27.90
2018-09-11T17:15:01.849Z,27.90
2018-09-11T17:17:30.290Z,27.80
2018-09-11T17:19:58.761Z,27.80
2018-09-11T17:22:27.192Z,27.80
2018-09-11T17:24:55.813Z,27.70
2018-09-11T17:27:24.216Z,27.70
2018-09-11T17:29:52.731Z,27.60
2018-09-11T17:32:21.343Z,27.50
2018-09-11T17:34:49.785Z,27.50
2018-09-11T17:37:18.204Z,27.50
2018-09-11T17:39:46.643Z,27.40
2018-09-11T17:42:15.054Z,27.30
2018-09-11T17:44:43.494Z,27.20
2018-09-11T17:47:12.140Z,27.20
2018-09-11T17:49:40.802Z,27.10
2018-09-11T17:52:09.347Z,27.00
2018-09-11T17:54:37.979Z,26.90
2018-09-11T17:57:06.462Z,26.80
2018-09-11T17:59:34.975Z,26.80
2018-09-11T18:02:03.504Z,26.70
2018-09-11T18:04:31.918Z,26.60
2018-09-11T18:07:00.382Z,26.60
2018-09-11T18:09:28.771Z,26.60
2018-09-11T18:11:57.266Z,26.50
2018-09-11T18:14:25.826Z,26.40
2018-09-11T18:16:54.549Z,26.40
2018-09-11T18:19:23.089Z,26.30
2018-09-11T18:21:51.628Z,26.30
2018-09-11T18:24:20.005Z,26.20
2018-09-11T18:26:48.490Z,26.10
2018-09-11T18:29:18.317Z,26.00
2018-09-11T18:31:46.827Z,25.90
2018-09-11T18:34:15.278Z,25.80
2018-09-11T18:36:43.820Z,25.70
2018-09-11T18:39:12.310Z,25.70
2018-09-11T18:41:40.763Z,25.60
2018-09-11T18:44:09.313Z,25.50
2018-09-11T18:46:37.839Z,25.40
2018-09-11T18:49:06.573Z,25.40
2018-09-11T18:51:35.066Z,25.30
2018-09-11T18:54:03.506Z,25.30
2018-09-11T18:56:32.011Z,25.20
2018-09-11T18:59:00.576Z,25.30
2018-09-11T19:01:29.039Z,25.30
2018-09-11T19:04:04.182Z,25.20
2018-09-11T19:06:32.808Z,25.10
2018-09-11T19:09:01.363Z,25.10
2018-09-11T19:11:29.978Z,25.00
2018-09-11T19:13:58.593Z,24.90
2018-09-11T19:16:26.968Z,24.80
2018-09-11T19:18:55.506Z,24.80
2018-09-11T19:21:23.893Z,24.80
2018-09-11T19:23:52.357Z,24.70
2018-09-11T19:26:21.044Z,24.60
2018-09-11T19:28:49.644Z,24.60
2018-09-11T19:31:18.122Z,24.50
2018-09-11T19:33:46.577Z,24.50
2018-09-11T19:36:15.183Z,24.40
2018-09-11T19:38:43.798Z,24.40
2018-09-11T19:41:12.426Z,24.30
2018-09-11T19:43:40.938Z,24.20
2018-09-11T19:46:09.399Z,24.20
2018-09-11T19:48:37.825Z,24.20
2018-09-11T19:51:06.356Z,24.20
2018-09-11T19:53:34.950Z,24.20
2018-09-11T19:56:03.520Z,24.10
2018-09-11T19:58:32.039Z,24.00
2018-09-11T20:01:00.439Z,24.00
2018-09-11T20:03:28.929Z,24.00
2018-09-11T20:05:57.443Z,24.00
2018-09-11T20:08:25.869Z,24.00
2018-09-11T20:10:54.471Z,24.00
2018-09-11T20:13:22.913Z,24.00
2018-09-11T20:15:51.580Z,23.90
2018-09-11T20:18:20.037Z,23.80
2018-09-11T20:20:48.560Z,23.80
2018-09-11T20:23:17.122Z,23.80
2018-09-11T20:25:45.542Z,23.70
2018-09-11T20:28:14.125Z,23.70
2018-09-11T20:30:42.688Z,23.60
2018-09-11T20:33:11.111Z,23.60
2018-09-11T20:35:39.602Z,23.60
2018-09-11T20:38:08.037Z,23.50
2018-09-11T20:40:36.434Z,23.50
2018-09-11T20:43:05.197Z,23.50
2018-09-11T20:45:33.766Z,23.40
2018-09-11T20:48:02.283Z,23.30
2018-09-11T20:50:30.820Z,23.20
2018-09-11T20:52:59.277Z,23.20
2018-09-11T20:55:27.889Z,23.20
2018-09-11T20:57:56.357Z,23.30
2018-09-11T21:00:24.844Z,23.30
2018-09-11T21:02:53.279Z,23.20
2018-09-11T21:05:21.714Z,23.20
2018-09-11T21:07:50.149Z,23.10
2018-09-11T21:10:18.573Z,23.10
2018-09-11T21:12:46.985Z,23.00
2018-09-11T21:15:15.701Z,23.00
2018-09-11T21:17:44.130Z,22.90
2018-09-11T21:20:12.592Z,22.90
2018-09-11T21:22:40.978Z,22.80
2018-09-11T21:25:09.375Z,22.80
2018-09-11T21:27:37.878Z,22.70
2018-09-11T21:30:06.613Z,22.70
2018-09-11T21:32:34.982Z,22.70
2018-09-11T21:35:03.345Z,22.60
2018-09-11T21:37:31.881Z,22.60
2018-09-11T21:40:00.368Z,22.60
2018-09-11T21:42:28.791Z,22.60
2018-09-11T21:44:57.309Z,22.50
2018-09-11T21:47:25.834Z,22.40
2018-09-11T21:49:54.320Z,22.40
2018-09-11T21:52:22.885Z,22.40
2018-09-11T21:54:51.593Z,22.30
2018-09-11T21:57:19.980Z,22.30
2018-09-11T21:59:48.377Z,22.30
2018-09-11T22:02:16.802Z,22.30
2018-09-11T22:04:45.323Z,22.30
2018-09-11T22:07:13.777Z,22.20
2018-09-11T22:09:42.162Z,22.20
2018-09-11T22:12:10.700Z,22.10
2018-09-11T22:14:39.170Z,22.10
2018-09-11T22:17:07.542Z,22.10
2018-09-11T22:19:35.956Z,22.10
2018-09-11T22:22:04.390Z,22.00
2018-09-11T22:24:32.804Z,22.00
2018-09-11T22:27:01.274Z,22.00
2018-09-11T22:29:29.794Z,21.90
2018-09-11T22:31:58.383Z,21.90
2018-09-11T22:34:26.866Z,21.80
2018-09-11T22:36:55.259Z,21.70
2018-09-11T22:39:23.734Z,21.70
2018-09-11T22:41:52.083Z,21.70
2018-09-11T22:44:20.645Z,21.70
2018-09-11T22:46:49.160Z,21.60
2018-09-11T22:49:17.567Z,21.60
2018-09-11T22:51:45.949Z,21.50
2018-09-11T22:54:14.333Z,21.50
2018-09-11T22:56:42.866Z,21.50
2018-09-11T22:59:11.229Z,21.50
2018-09-11T23:01:39.817Z,21.40
2018-09-11T23:04:08.304Z,21.40
2018-09-11T23:06:36.871Z,21.40
2018-09-11T23:09:07.650Z,21.40
2018-09-11T23:11:36.179Z,21.30
2018-09-11T23:14:04.656Z,21.30
2018-09-11T23:16:33.146Z,21.30
2018-09-11T23:19:01.613Z,21.30
2018-09-11T23:21:30.141Z,21.20
2018-09-11T23:23:58.547Z,21.20
2018-09-11T23:26:26.994Z,21.10
2018-09-11T23:28:55.465Z,21.10
2018-09-11T23:31:23.961Z,21.10
2018-09-11T23:33:52.324Z,21.10
2018-09-11T23:36:20.703Z,21.00
2018-09-11T23:38:49.232Z,21.00
2018-09-11T23:41:17.730Z,20.90
2018-09-11T23:43:46.922Z,20.90
2018-09-11T23:46:15.418Z,20.90
2018-09-11T23:48:43.838Z,20.80
2018-09-11T23:51:12.322Z,20.80
2018-09-11T23:53:40.765Z,20.80
2018-09-11T23:56:09.236Z,20.80
2018-09-11T23:58:37.665Z,20.70
